createdAt,value
2018-07-19T00:00:20.756Z,48.65
2018-07-19T00:02:48.458Z,49.26
2018-07-19T00:05:16.334Z,49.09
2018-07-19T00:07:44.865Z,49.38
2018-07-19T00:10:13.080Z,49.60
2018-07-19T00:12:40.760Z,49.44
2018-07-19T00:15:08.665Z,49.70
2018-07-19T00:17:36.719Z,49.87
2018-07-19T00:20:04.370Z,49.92
2018-07-19T00:22:32.286Z,49.53
2018-07-19T00:24:59.934Z,49.95
2018-07-19T00:27:27.855Z,49.46
2018-07-19T00:29:55.479Z,49.66
2018-07-19T00:32:24.249Z,50.36
2018-07-19T00:34:53.245Z,49.84
2018-07-19T00:37:21.242Z,50.65
2018-07-19T00:39:48.916Z,50.42
2018-07-19T00:42:17.199Z,50.64
2018-07-19T00:44:45.280Z,50.57
2018-07-19T00:47:12.890Z,50.50
2018-07-19T00:49:40.513Z,50.89
2018-07-19T00:52:08.180Z,51.37
2018-07-19T00:54:36.838Z,51.71
2018-07-19T00:57:04.473Z,51.90
2018-07-19T00:59:32.116Z,51.52
2018-07-19T01:01:59.743Z,51.75
2018-07-19T01:04:27.668Z,51.86
2018-07-19T01:06:55.365Z,51.83
2018-07-19T01:09:22.984Z,51.81
2018-07-19T01:11:50.655Z,51.28
2018-07-19T01:14:18.695Z,51.77
2018-07-19T01:16:46.374Z,51.54
2018-07-19T01:19:14.024Z,51.26
2018-07-19T01:21:41.677Z,51.28
2018-07-19T01:24:10.513Z,51.30
2018-07-19T01:26:38.140Z,51.84
2018-07-19T01:29:07.258Z,50.98
2018-07-19T01:31:34.878Z,51.73
2018-07-19T01:34:02.991Z,51.31
2018-07-19T01:36:30.656Z,51.58
2018-07-19T01:38:58.253Z,51.62
2018-07-19T01:41:26.925Z,51.00
2018-07-19T01:43:54.880Z,51.38
2018-07-19T01:46:22.502Z,51.50
2018-07-19T01:48:50.234Z,51.66
2018-07-19T01:51:17.843Z,51.56
2018-07-19T01:53:45.802Z,51.17
2018-07-19T01:56:13.427Z,51.46
2018-07-19T01:58:41.867Z,51.05
2018-07-19T02:01:11.675Z,51.80
2018-07-19T02:03:39.677Z,51.06
2018-07-19T02:06:07.320Z,51.97
2018-07-19T02:08:34.948Z,51.61
2018-07-19T02:11:02.910Z,52.34
2018-07-19T02:13:31.185Z,51.70
2018-07-19T02:15:58.860Z,52.57
2018-07-19T02:18:28.852Z,52.76
2018-07-19T02:20:56.486Z,52.46
2018-07-19T02:23:24.164Z,53.65
2018-07-19T02:25:51.818Z,53.73
2018-07-19T02:28:19.838Z,54.07
2018-07-19T02:30:47.500Z,54.44
2018-07-19T02:33:15.134Z,54.82
2018-07-19T02:35:42.775Z,54.57
2018-07-19T02:38:10.864Z,54.54
2018-07-19T02:40:38.587Z,53.87
2018-07-19T02:43:06.339Z,54.31
2018-07-19T02:45:34.023Z,54.04
2018-07-19T02:48:02.143Z,54.30
2018-07-19T02:50:29.867Z,54.42
2018-07-19T02:52:57.537Z,53.83
2018-07-19T02:55:25.245Z,54.14
2018-07-19T02:57:53.213Z,54.10
2018-07-19T03:00:24.501Z,54.14
2018-07-19T03:02:52.154Z,53.77
2018-07-19T03:05:19.756Z,53.70
2018-07-19T03:07:48.430Z,53.61
2018-07-19T03:10:16.037Z,54.15
2018-07-19T03:12:43.689Z,54.20
2018-07-19T03:15:11.320Z,53.63
2018-07-19T03:17:39.298Z,53.62
2018-07-19T03:20:10.473Z,53.61
2018-07-19T03:22:41.812Z,54.15
2018-07-19T03:25:10.043Z,53.74
2018-07-19T03:27:37.655Z,54.41
2018-07-19T03:30:05.299Z,53.69
2018-07-19T03:32:32.923Z,54.10
2018-07-19T03:35:00.831Z,54.72
2018-07-19T03:37:28.505Z,54.34
2018-07-19T03:39:56.163Z,54.71
2018-07-19T03:42:26.836Z,54.63
2018-07-19T03:44:54.752Z,55.14
2018-07-19T03:47:22.605Z,54.86
2018-07-19T03:49:50.289Z,55.38
2018-07-19T03:52:17.995Z,54.77
2018-07-19T03:54:45.999Z,55.25
2018-07-19T03:57:13.699Z,55.45
2018-07-19T03:59:41.350Z,55.71
2018-07-19T04:02:09.295Z,55.42
2018-07-19T04:04:37.801Z,55.59
2018-07-19T04:07:05.455Z,55.71
2018-07-19T04:09:33.058Z,55.72
2018-07-19T04:12:00.648Z,55.64
2018-07-19T04:14:28.303Z,55.57
2018-07-19T04:16:56.264Z,55.43
2018-07-19T04:19:23.897Z,55.15
2018-07-19T04:21:51.499Z,55.30
2018-07-19T04:24:19.534Z,55.40
2018-07-19T04:26:47.216Z,55.42
2018-07-19T04:29:14.834Z,54.84
2018-07-19T04:31:42.937Z,54.83
2018-07-19T04:34:10.668Z,54.74
2018-07-19T04:36:38.353Z,54.88
2018-07-19T04:39:06.015Z,54.61
2018-07-19T04:41:33.665Z,54.03
2018-07-19T04:44:02.959Z,54.31
2018-07-19T04:46:30.971Z,53.69
2018-07-19T04:48:58.681Z,53.22
2018-07-19T04:51:26.610Z,53.91
2018-07-19T04:53:56.131Z,53.45
2018-07-19T04:56:23.832Z,53.17
2018-07-19T04:58:51.636Z,53.51
2018-07-19T05:01:20.098Z,53.04
2018-07-19T05:03:47.780Z,53.02
2018-07-19T05:06:15.617Z,52.48
2018-07-19T05:08:43.593Z,52.91
2018-07-19T05:11:13.382Z,52.48
2018-07-19T05:13:41.085Z,51.97
2018-07-19T05:16:09.037Z,52.35
2018-07-19T05:18:37.700Z,51.76
2018-07-19T05:21:05.373Z,52.29
2018-07-19T05:23:33.349Z,52.52
2018-07-19T05:26:01.050Z,52.38
2018-07-19T05:28:29.284Z,51.62
2018-07-19T05:30:57.151Z,51.52
2018-07-19T05:33:24.780Z,51.86
2018-07-19T05:35:52.438Z,51.51
2018-07-19T05:38:20.330Z,51.40
2018-07-19T05:40:48.690Z,51.41
2018-07-19T05:43:16.329Z,50.79
2018-07-19T05:45:44.271Z,50.98
2018-07-19T05:48:12.496Z,50.43
2018-07-19T05:50:40.486Z,50.42
2018-07-19T05:53:08.404Z,50.25
2018-07-19T05:55:36.058Z,49.86
2018-07-19T05:58:04.381Z,50.14
2018-07-19T06:00:33.213Z,49.30
2018-07-19T06:03:01.432Z,49.98
2018-07-19T06:05:29.786Z,49.87
2018-07-19T06:07:57.710Z,49.09
2018-07-19T06:10:25.399Z,49.69
2018-07-19T06:12:53.756Z,49.27
2018-07-19T06:15:21.680Z,48.80
2018-07-19T06:17:50.899Z,48.47
2018-07-19T06:20:18.532Z,48.26
2018-07-19T06:22:46.462Z,48.56
2018-07-19T06:25:15.292Z,48.05
2018-07-19T06:27:43.625Z,48.27
2018-07-19T06:30:12.359Z,47.60
2018-07-19T06:32:40.567Z,48.33
2018-07-19T06:35:08.224Z,47.95
2018-07-19T06:37:37.766Z,47.26
2018-07-19T06:40:07.614Z,47.30
2018-07-19T06:42:35.281Z,47.16
2018-07-19T06:45:04.834Z,47.17
2018-07-19T06:47:32.470Z,45.98
2018-07-19T06:50:00.695Z,45.88
2018-07-19T06:52:28.636Z,46.47
2018-07-19T06:54:56.905Z,45.40
2018-07-19T06:57:24.551Z,45.36
2018-07-19T06:59:53.806Z,45.44
2018-07-19T07:02:21.492Z,45.31
2018-07-19T07:04:49.669Z,45.79
2018-07-19T07:07:17.576Z,45.54
2018-07-19T07:09:45.229Z,45.18
2018-07-19T07:12:13.446Z,45.28
2018-07-19T07:14:42.375Z,44.48
2018-07-19T07:17:10.227Z,44.28
2018-07-19T07:19:39.708Z,45.03
2018-07-19T07:22:08.491Z,44.71
2018-07-19T07:24:36.109Z,44.78
2018-07-19T07:27:03.724Z,43.90
2018-07-19T07:29:33.190Z,44.15
2018-07-19T07:32:01.444Z,43.34
2018-07-19T07:34:29.351Z,43.08
2018-07-19T07:36:57.240Z,42.86
2018-07-19T07:39:29.715Z,43.27
2018-07-19T07:41:57.390Z,42.93
2018-07-19T07:44:25.928Z,42.03
2018-07-19T07:46:54.168Z,42.41
2018-07-19T07:49:21.775Z,41.77
2018-07-19T07:51:50.472Z,42.52
2018-07-19T07:54:18.134Z,42.34
2018-07-19T07:56:45.784Z,41.87
2018-07-19T07:59:13.713Z,42.17
2018-07-19T08:01:41.387Z,41.80
2018-07-19T08:04:09.023Z,42.03
2018-07-19T08:06:40.620Z,41.79
2018-07-19T08:09:08.862Z,41.67
2018-07-19T08:11:36.583Z,41.81
2018-07-19T08:14:04.508Z,41.97
2018-07-19T08:16:32.168Z,41.12
2018-07-19T08:19:00.506Z,41.41
2018-07-19T08:21:28.476Z,40.84
2018-07-19T08:23:57.855Z,41.09
2018-07-19T08:26:26.430Z,40.69
2018-07-19T08:28:54.880Z,40.51
2018-07-19T08:31:23.446Z,40.13
2018-07-19T08:33:51.424Z,40.49
2018-07-19T08:36:20.227Z,40.29
2018-07-19T08:38:47.811Z,40.11
2018-07-19T08:41:15.455Z,39.75
2018-07-19T08:43:43.398Z,39.77
2018-07-19T08:46:11.864Z,39.44
2018-07-19T08:48:39.477Z,38.68
2018-07-19T08:51:08.250Z,39.34
2018-07-19T08:53:35.969Z,38.87
2018-07-19T08:56:04.399Z,39.00
2018-07-19T08:58:32.323Z,39.10
2018-07-19T09:00:59.977Z,38.43
2018-07-19T09:03:27.558Z,38.73
2018-07-19T09:05:55.478Z,38.30
2018-07-19T09:08:23.276Z,38.34
2018-07-19T09:10:50.888Z,38.25
2018-07-19T09:13:19.387Z,38.93
2018-07-19T09:15:47.494Z,38.73
2018-07-19T09:18:15.578Z,38.59
2018-07-19T09:20:44.147Z,37.48
2018-07-19T09:23:12.337Z,37.85
2018-07-19T09:25:44.511Z,37.73
2018-07-19T09:28:14.492Z,37.23
2018-07-19T09:30:43.291Z,37.95
2018-07-19T09:33:12.678Z,36.99
2018-07-19T09:35:40.570Z,37.07
2018-07-19T09:38:08.221Z,37.57
2018-07-19T09:40:37.439Z,37.27
2018-07-19T09:43:05.762Z,36.19
2018-07-19T09:45:33.390Z,37.09
2018-07-19T09:48:02.221Z,36.43
2018-07-19T09:50:30.728Z,35.55
2018-07-19T09:52:58.654Z,36.01
2018-07-19T09:55:26.550Z,34.79
2018-07-19T10:00:47.997Z,34.54
2018-07-19T10:03:15.645Z,33.08
2018-07-19T10:05:43.297Z,32.98
2018-07-19T10:08:12.147Z,33.36
2018-07-19T10:10:41.269Z,33.52
2018-07-19T10:13:12.393Z,33.97
2018-07-19T10:15:42.412Z,34.83
2018-07-19T10:18:11.632Z,34.20
2018-07-19T10:20:40.927Z,33.75
2018-07-19T10:23:10.005Z,33.80
2018-07-19T10:25:37.707Z,34.44
2018-07-19T10:28:05.743Z,32.98
2018-07-19T10:30:34.299Z,33.26
2018-07-19T10:33:03.447Z,34.15
2018-07-19T10:35:31.087Z,33.79
2018-07-19T10:38:01.631Z,34.84
2018-07-19T10:40:29.284Z,34.58
2018-07-19T10:42:59.258Z,34.97
2018-07-19T10:45:29.272Z,36.22
2018-07-19T10:47:57.908Z,35.64
2018-07-19T10:50:25.508Z,36.42
2018-07-19T10:52:55.237Z,35.41
2018-07-19T10:55:23.267Z,35.25
2018-07-19T10:57:53.219Z,35.54
2018-07-19T11:00:21.148Z,35.05
2018-07-19T11:02:48.802Z,33.38
2018-07-19T11:05:17.530Z,32.56
2018-07-19T11:07:46.411Z,31.45
2018-07-19T11:10:15.471Z,29.82
2018-07-19T11:12:43.842Z,29.39
2018-07-19T11:15:11.688Z,28.35
2018-07-19T11:17:39.320Z,28.85
2018-07-19T11:20:08.515Z,27.71
2018-07-19T11:22:37.056Z,27.55
2018-07-19T11:25:04.699Z,27.11
2018-07-19T11:27:33.155Z,26.96
2018-07-19T11:30:02.472Z,26.27
2018-07-19T11:32:30.815Z,27.15
2018-07-19T11:34:59.442Z,25.76
2018-07-19T11:37:27.366Z,26.39
2018-07-19T11:39:55.914Z,25.23
2018-07-19T11:42:25.786Z,25.94
2018-07-19T11:44:54.971Z,25.73
2018-07-19T11:47:22.571Z,25.78
2018-07-19T11:49:51.312Z,25.90
2018-07-19T11:52:20.684Z,26.28
2018-07-19T11:54:48.250Z,25.62
2018-07-19T11:57:15.894Z,24.98
2018-07-19T11:59:43.739Z,24.36
2018-07-19T12:02:12.086Z,24.09
2018-07-19T12:04:40.335Z,24.47
2018-07-19T12:07:09.208Z,24.30
2018-07-19T12:09:36.799Z,23.53
2018-07-19T12:12:04.452Z,24.65
2018-07-19T12:14:34.240Z,23.39
2018-07-19T12:17:01.828Z,24.45
2018-07-19T12:19:30.550Z,23.52
2018-07-19T12:22:00.210Z,24.97
2018-07-19T12:24:27.836Z,25.16
2018-07-19T12:26:55.453Z,26.41
2018-07-19T12:29:25.430Z,27.06
2018-07-19T12:31:54.772Z,27.61
2018-07-19T12:34:23.349Z,28.12
2018-07-19T12:36:52.400Z,28.88
2018-07-19T12:39:20.242Z,30.18
2018-07-19T12:41:48.438Z,30.32
2018-07-19T12:44:16.551Z,30.22
2018-07-19T12:46:45.287Z,30.09
2018-07-19T12:49:13.391Z,30.29
2018-07-19T12:51:41.244Z,29.93
2018-07-19T12:54:13.214Z,29.76
2018-07-19T12:56:42.143Z,28.37
2018-07-19T12:59:09.759Z,26.94
2018-07-19T13:01:37.354Z,25.47
2018-07-19T13:04:05.227Z,24.34
2018-07-19T13:06:38.078Z,24.35
2018-07-19T13:09:05.682Z,23.22
2018-07-19T13:11:33.612Z,23.61
2018-07-19T13:14:01.508Z,22.11
2018-07-19T13:16:29.172Z,22.05
2018-07-19T13:18:57.032Z,22.77
2018-07-19T13:21:25.772Z,22.34
2018-07-19T13:23:55.377Z,23.92
2018-07-19T13:26:23.315Z,24.93
2018-07-19T13:28:50.929Z,24.49
2018-07-19T13:31:19.254Z,23.38
2018-07-19T13:33:47.156Z,22.43
2018-07-19T13:36:15.447Z,21.84
2018-07-19T13:38:43.034Z,22.35
2018-07-19T13:41:13.416Z,21.70
2018-07-19T13:43:41.026Z,20.98
2018-07-19T13:46:08.647Z,20.98
2018-07-19T13:48:37.502Z,22.35
2018-07-19T13:51:06.441Z,24.09
2018-07-19T13:53:36.228Z,24.69
2018-07-19T13:56:05.627Z,26.55
2018-07-19T13:58:34.274Z,25.40
2018-07-19T14:01:03.057Z,26.65
2018-07-19T14:03:31.154Z,26.72
2018-07-19T14:05:58.781Z,28.21
2018-07-19T14:08:26.654Z,28.86
2018-07-19T14:10:55.382Z,29.28
2018-07-19T14:13:23.639Z,29.98
2018-07-19T14:15:51.871Z,29.86
2018-07-19T14:18:20.422Z,30.17
2018-07-19T14:23:43.999Z,30.86
2018-07-19T14:26:13.635Z,30.40
2018-07-19T14:28:43.602Z,31.08
2018-07-19T14:31:11.471Z,31.54
2018-07-19T14:33:40.904Z,31.59
2018-07-19T14:36:08.575Z,31.65
2018-07-19T14:38:36.536Z,31.01
2018-07-19T14:41:05.328Z,30.88
2018-07-19T14:43:37.439Z,31.39
2018-07-19T14:46:08.233Z,31.60
2018-07-19T14:48:40.096Z,31.07
2018-07-19T14:51:08.663Z,31.21
2018-07-19T14:53:36.558Z,31.90
2018-07-19T14:56:04.259Z,31.15
2018-07-19T14:58:31.854Z,31.04
2018-07-19T15:00:59.729Z,30.47
2018-07-19T15:03:27.351Z,30.40
2018-07-19T15:05:55.030Z,31.10
2018-07-19T15:08:23.629Z,30.84
2018-07-19T15:10:51.233Z,30.22
2018-07-19T15:13:21.700Z,28.96
2018-07-19T15:15:49.647Z,26.97
2018-07-19T15:18:18.213Z,25.78
2018-07-19T15:20:47.455Z,24.19
2018-07-19T15:23:16.427Z,23.30
2018-07-19T15:25:44.663Z,21.79
2018-07-19T15:28:17.138Z,22.23
2018-07-19T15:30:45.053Z,21.45
2018-07-19T15:33:13.396Z,22.72
2018-07-19T15:35:42.827Z,22.14
2018-07-19T15:38:11.407Z,21.65
2018-07-19T15:40:41.235Z,23.32
2018-07-19T15:43:11.835Z,23.44
2018-07-19T15:45:40.357Z,24.20
2018-07-19T15:48:09.481Z,23.68
2018-07-19T15:50:37.327Z,23.89
2018-07-19T15:53:07.490Z,24.18
2018-07-19T15:55:38.509Z,25.16
2018-07-19T15:58:06.140Z,23.65
2018-07-19T16:00:35.168Z,24.52
2018-07-19T16:03:02.783Z,23.50
2018-07-19T16:05:30.530Z,24.29
2018-07-19T16:07:59.131Z,23.55
2018-07-19T16:10:27.327Z,22.69
2018-07-19T16:12:54.941Z,23.18
2018-07-19T16:15:22.556Z,22.86
2018-07-19T16:17:50.191Z,22.08
2018-07-19T16:20:20.847Z,23.29
2018-07-19T16:22:52.218Z,22.02
2018-07-19T16:25:19.831Z,22.22
2018-07-19T16:27:47.742Z,23.50
2018-07-19T16:30:15.404Z,23.49
2018-07-19T16:32:43.642Z,22.97
2018-07-19T16:35:11.572Z,23.96
2018-07-19T16:37:39.228Z,25.34
2018-07-19T16:40:07.388Z,25.67
2018-07-19T16:42:38.735Z,26.61
2018-07-19T16:45:07.320Z,27.06
2018-07-19T16:47:35.595Z,27.51
2018-07-19T16:50:04.301Z,27.98
2018-07-19T16:52:33.420Z,28.33
2018-07-19T16:55:02.583Z,29.30
2018-07-19T16:57:30.543Z,29.58
2018-07-19T16:59:58.307Z,28.98
2018-07-19T17:02:27.047Z,29.18
2018-07-19T17:04:54.951Z,29.47
2018-07-19T17:07:22.607Z,30.04
2018-07-19T17:09:50.227Z,30.75
2018-07-19T17:12:18.638Z,30.72
2018-07-19T17:14:46.268Z,30.53
2018-07-19T17:17:15.390Z,31.18
2018-07-19T17:19:45.387Z,30.54
2018-07-19T17:22:13.510Z,30.81
2018-07-19T17:24:41.115Z,31.54
2018-07-19T17:27:09.255Z,31.65
2018-07-19T17:29:37.962Z,31.09
2018-07-19T17:32:06.329Z,31.84
2018-07-19T17:34:34.315Z,31.81
2018-07-19T17:37:01.916Z,31.00
2018-07-19T17:39:30.176Z,31.02
2018-07-19T17:42:00.268Z,31.58
2018-07-19T17:44:27.983Z,31.60
2018-07-19T17:46:56.244Z,31.10
2018-07-19T17:49:24.787Z,31.75
2018-07-19T17:51:53.280Z,31.32
2018-07-19T17:54:21.636Z,31.96
2018-07-19T17:56:50.310Z,31.88
2018-07-19T17:59:19.395Z,32.01
2018-07-19T18:01:48.935Z,31.36
2018-07-19T18:04:18.534Z,31.61
2018-07-19T18:06:51.320Z,31.41
2018-07-19T18:09:19.954Z,31.67
2018-07-19T18:11:47.875Z,32.19
2018-07-19T18:14:15.543Z,32.01
2018-07-19T18:16:43.216Z,32.63
2018-07-19T18:19:11.851Z,32.27
2018-07-19T18:21:40.200Z,32.34
2018-07-19T18:24:07.836Z,32.87
2018-07-19T18:26:36.749Z,32.17
2018-07-19T18:29:05.291Z,32.40
2018-07-19T18:31:32.931Z,32.53
2018-07-19T18:34:02.120Z,33.23
2018-07-19T18:36:33.229Z,32.55
2018-07-19T18:39:02.201Z,32.99
2018-07-19T18:41:33.155Z,33.43
2018-07-19T18:44:01.494Z,32.83
2018-07-19T18:46:31.061Z,33.47
2018-07-19T18:48:58.947Z,32.75
2018-07-19T18:51:27.481Z,33.04
2018-07-19T18:53:56.576Z,32.80
2018-07-19T18:56:24.472Z,33.09
2018-07-19T18:58:55.612Z,33.80
2018-07-19T19:01:23.940Z,33.32
2018-07-19T19:03:52.570Z,33.41
2018-07-19T19:06:23.827Z,33.53
2018-07-19T19:08:52.225Z,34.09
2018-07-19T19:11:22.513Z,34.43
2018-07-19T19:13:50.140Z,34.01
2018-07-19T19:16:17.770Z,33.97
2018-07-19T19:18:45.630Z,34.35
2018-07-19T19:21:13.221Z,34.56
2018-07-19T19:23:40.857Z,35.05
2018-07-19T19:26:09.679Z,35.24
2018-07-19T19:28:37.262Z,34.92
2018-07-19T19:31:05.499Z,34.75
2018-07-19T19:33:33.366Z,35.21
2018-07-19T19:36:02.545Z,35.94
2018-07-19T19:38:31.586Z,35.12
2018-07-19T19:41:01.171Z,35.47
2018-07-19T19:43:28.780Z,36.24
2018-07-19T19:45:58.490Z,36.20
2018-07-19T19:48:26.363Z,36.33
2018-07-19T19:50:53.926Z,35.98
2018-07-19T19:53:21.492Z,36.69
2018-07-19T19:55:51.450Z,36.67
2018-07-19T19:58:20.670Z,36.20
2018-07-19T20:00:49.890Z,36.58
2018-07-19T20:03:20.212Z,36.52
2018-07-19T20:05:48.400Z,37.37
2018-07-19T20:08:16.771Z,37.44
2018-07-19T20:10:46.252Z,37.69
2018-07-19T20:13:13.863Z,37.58
2018-07-19T20:15:42.689Z,37.91
2018-07-19T20:18:10.602Z,37.98
2018-07-19T20:20:40.372Z,37.29
2018-07-19T20:23:07.950Z,38.07
2018-07-19T20:25:36.818Z,37.68
2018-07-19T20:28:04.432Z,38.58
2018-07-19T20:30:33.203Z,38.10
2018-07-19T20:33:01.364Z,38.19
2018-07-19T20:35:29.799Z,38.07
2018-07-19T20:37:57.604Z,38.22
2018-07-19T20:40:26.277Z,38.55
2018-07-19T20:42:53.883Z,38.64
2018-07-19T20:45:21.502Z,39.25
2018-07-19T20:47:49.450Z,38.71
2018-07-19T20:50:17.779Z,38.96
2018-07-19T20:52:45.408Z,39.57
2018-07-19T20:55:13.926Z,39.01
2018-07-19T20:57:42.345Z,39.41
2018-07-19T21:00:11.105Z,39.74
2018-07-19T21:02:41.168Z,40.20
2018-07-19T21:05:10.191Z,40.13
2018-07-19T21:07:38.322Z,40.59
2018-07-19T21:10:07.419Z,39.92
2018-07-19T21:12:35.706Z,39.88
2018-07-19T21:15:03.991Z,40.06
2018-07-19T21:17:31.584Z,40.65
2018-07-19T21:20:00.841Z,41.11
2018-07-19T21:22:29.232Z,40.29
2018-07-19T21:24:57.685Z,40.66
2018-07-19T21:27:25.522Z,41.24
2018-07-19T21:29:53.727Z,41.18
2018-07-19T21:32:21.602Z,40.40
2018-07-19T21:34:49.345Z,40.99
2018-07-19T21:37:21.259Z,40.36
2018-07-19T21:39:48.999Z,40.50
2018-07-19T21:42:17.816Z,40.69
2018-07-19T21:44:46.619Z,41.64
2018-07-19T21:47:14.923Z,41.12
2018-07-19T21:49:42.584Z,41.13
2018-07-19T21:52:10.526Z,41.91
2018-07-19T21:54:38.187Z,42.03
2018-07-19T21:57:05.825Z,41.50
2018-07-19T21:59:34.343Z,42.15
2018-07-19T22:02:01.996Z,41.85
2018-07-19T22:04:29.579Z,41.74
2018-07-19T22:06:57.472Z,41.91
2018-07-19T22:09:25.095Z,41.87
2018-07-19T22:11:53.739Z,42.62
2018-07-19T22:14:22.342Z,42.38
2018-07-19T22:16:51.402Z,42.21
2018-07-19T22:19:19.094Z,42.85
2018-07-19T22:21:47.167Z,42.07
2018-07-19T22:24:14.807Z,42.16
2018-07-19T22:26:43.128Z,43.01
2018-07-19T22:29:12.646Z,42.21
2018-07-19T22:31:40.895Z,42.83
2018-07-19T22:34:09.072Z,42.52
2018-07-19T22:36:38.619Z,43.22
2018-07-19T22:39:07.313Z,43.02
2018-07-19T22:41:34.938Z,43.27
2018-07-19T22:44:02.572Z,43.08
2018-07-19T22:46:30.191Z,43.17
2018-07-19T22:48:58.369Z,43.04
2018-07-19T22:51:26.516Z,43.14
2018-07-19T22:53:55.295Z,43.38
2018-07-19T22:56:22.988Z,42.97
2018-07-19T22:58:50.910Z,43.22
2018-07-19T23:01:18.534Z,43.79
2018-07-19T23:03:46.144Z,43.80
2018-07-19T23:06:14.299Z,43.58
2018-07-19T23:08:43.315Z,43.59
2018-07-19T23:11:10.932Z,43.67
2018-07-19T23:13:38.563Z,43.82
2018-07-19T23:16:06.476Z,44.16
2018-07-19T23:18:34.905Z,44.31
2018-07-19T23:21:02.544Z,44.19
2018-07-19T23:23:30.620Z,44.30
2018-07-19T23:25:59.053Z,44.39
2018-07-19T23:28:28.907Z,45.08
2018-07-19T23:30:56.593Z,44.87
2018-07-19T23:33:24.729Z,44.61
2018-07-19T23:35:59.642Z,45.06
2018-07-19T23:38:34.727Z,44.89
2018-07-19T23:41:05.004Z,44.88
2018-07-19T23:43:35.696Z,44.83
2018-07-19T23:46:15.506Z,45.34
2018-07-19T23:48:43.218Z,44.86
2018-07-19T23:51:11.648Z,45.40
2018-07-19T23:53:39.246Z,44.91
2018-07-19T23:56:07.300Z,45.12
2018-07-19T23:58:34.949Z,45.52
